Nesenie raksti

Ziņas

Par Gliding.lv

Gliding.lv ir interneta vietne par planieriem un planierismu. Šeit būs atrodama informācija par iespējām pamēģināt, iesaistīties un organizēt planierisma aktivitātes. Izmanto Gliding.lv forumu, ja Tev ir kāda tēma diskusijai vai jautājums. Gliding.lv merķis ir informēt un apvienot planierisma interesentus, nodrošinot un apmainoties ar aktuālāko un arī bijušo. Lidojam!

Laiks Rīgā
15°
clear sky
mitrums: 72%
vējš: 1m/s DA
Aug 16 • Zem 14
25°
Svē
19°
Pir
21°
Otr
23°
Tre
Meteo-dati no OpenWeatherMap

METAR

EVRA 201920Z 00000KT CAVOK 16/11 Q1016 NOSIG

EVLA 201920Z AUTO 03003KT 9000 NCD 16/13 Q1016

EVVA 201920Z AUTO 04003KT CAVOK 16/14 Q1016

Nesenie raksti

Pāriet uz rīkjoslu